sensor_id;sensor_type;location;lat;lon;timestamp;P1;durP1;ratioP1;P2;durP2;ratioP2
22571;SDS011;11452;53.368;14.658;2024-02-21T00:01:04;9.80;;;3.77;;
22571;SDS011;11452;53.368;14.658;2024-02-21T00:06:10;8.63;;;4.63;;
22571;SDS011;11452;53.368;14.658;2024-02-21T00:11:16;12.13;;;4.10;;
22571;SDS011;11452;53.368;14.658;2024-02-21T00:16:22;10.40;;;3.87;;
22571;SDS011;11452;53.368;14.658;2024-02-21T00:21:28;15.17;;;4.40;;
22571;SDS011;11452;53.368;14.658;2024-02-21T00:26:34;10.67;;;4.30;;
22571;SDS011;11452;53.368;14.658;2024-02-21T00:31:39;11.83;;;4.70;;
22571;SDS011;11452;53.368;14.658;2024-02-21T00:36:45;13.93;;;5.40;;
22571;SDS011;11452;53.368;14.658;2024-02-21T00:41:51;9.20;;;4.50;;
22571;SDS011;11452;53.368;14.658;2024-02-21T00:46:57;13.07;;;4.83;;
22571;SDS011;11452;53.368;14.658;2024-02-21T00:52:03;9.57;;;4.37;;
22571;SDS011;11452;53.368;14.658;2024-02-21T00:57:09;7.63;;;4.80;;
22571;SDS011;11452;53.368;14.658;2024-02-21T01:02:14;9.20;;;5.50;;
22571;SDS011;11452;53.368;14.658;2024-02-21T01:07:20;10.63;;;5.27;;
22571;SDS011;11452;53.368;14.658;2024-02-21T01:12:26;12.23;;;6.13;;
22571;SDS011;11452;53.368;14.658;2024-02-21T01:17:32;10.57;;;5.40;;
22571;SDS011;11452;53.368;14.658;2024-02-21T01:22:38;12.40;;;6.30;;
22571;SDS011;11452;53.368;14.658;2024-02-21T01:27:44;15.57;;;5.93;;
22571;SDS011;11452;53.368;14.658;2024-02-21T01:32:49;16.03;;;7.37;;
22571;SDS011;11452;53.368;14.658;2024-02-21T01:37:55;17.07;;;6.83;;
22571;SDS011;11452;53.368;14.658;2024-02-21T01:43:01;12.07;;;6.97;;
22571;SDS011;11452;53.368;14.658;2024-02-21T01:48:07;17.53;;;6.93;;
22571;SDS011;11452;53.368;14.658;2024-02-21T01:53:13;17.83;;;8.00;;
22571;SDS011;11452;53.368;14.658;2024-02-21T01:58:24;17.40;;;8.30;;
22571;SDS011;11452;53.368;14.658;2024-02-21T02:03:31;14.93;;;7.57;;
22571;SDS011;11452;53.368;14.658;2024-02-21T02:08:37;13.90;;;7.17;;
22571;SDS011;11452;53.368;14.658;2024-02-21T02:13:43;14.07;;;7.70;;
22571;SDS011;11452;53.368;14.658;2024-02-21T02:18:48;17.57;;;7.67;;
22571;SDS011;11452;53.368;14.658;2024-02-21T02:23:55;18.20;;;7.27;;
22571;SDS011;11452;53.368;14.658;2024-02-21T02:29:01;13.50;;;7.27;;
22571;SDS011;11452;53.368;14.658;2024-02-21T02:34:07;14.03;;;8.03;;
22571;SDS011;11452;53.368;14.658;2024-02-21T02:39:13;14.93;;;8.23;;
22571;SDS011;11452;53.368;14.658;2024-02-21T02:44:19;14.77;;;8.10;;
22571;SDS011;11452;53.368;14.658;2024-02-21T02:49:24;20.50;;;8.83;;
22571;SDS011;11452;53.368;14.658;2024-02-21T02:54:30;18.33;;;8.37;;
22571;SDS011;11452;53.368;14.658;2024-02-21T02:59:36;15.93;;;8.70;;
22571;SDS011;11452;53.368;14.658;2024-02-21T03:04:42;12.47;;;9.10;;
22571;SDS011;11452;53.368;14.658;2024-02-21T03:09:48;11.67;;;7.50;;
22571;SDS011;11452;53.368;14.658;2024-02-21T03:14:54;19.33;;;9.77;;
22571;SDS011;11452;53.368;14.658;2024-02-21T03:20:03;15.37;;;8.50;;
22571;SDS011;11452;53.368;14.658;2024-02-21T03:25:11;12.87;;;8.63;;
22571;SDS011;11452;53.368;14.658;2024-02-21T03:30:19;17.67;;;9.40;;
22571;SDS011;11452;53.368;14.658;2024-02-21T03:35:24;28.10;;;10.93;;
22571;SDS011;11452;53.368;14.658;2024-02-21T03:40:30;17.67;;;8.70;;
22571;SDS011;11452;53.368;14.658;2024-02-21T03:45:36;19.83;;;8.83;;
22571;SDS011;11452;53.368;14.658;2024-02-21T03:50:42;20.03;;;9.30;;
22571;SDS011;11452;53.368;14.658;2024-02-21T03:55:48;23.37;;;11.10;;
22571;SDS011;11452;53.368;14.658;2024-02-21T04:00:54;13.00;;;7.93;;
22571;SDS011;11452;53.368;14.658;2024-02-21T04:06:00;15.37;;;8.70;;
22571;SDS011;11452;53.368;14.658;2024-02-21T04:11:06;17.90;;;10.07;;
22571;SDS011;11452;53.368;14.658;2024-02-21T04:16:12;21.43;;;9.70;;
22571;SDS011;11452;53.368;14.658;2024-02-21T04:21:18;17.90;;;9.77;;
22571;SDS011;11452;53.368;14.658;2024-02-21T04:26:23;18.23;;;10.47;;
22571;SDS011;11452;53.368;14.658;2024-02-21T04:31:29;15.07;;;10.00;;
22571;SDS011;11452;53.368;14.658;2024-02-21T04:36:39;15.87;;;10.03;;
22571;SDS011;11452;53.368;14.658;2024-02-21T04:41:45;17.43;;;10.00;;
22571;SDS011;11452;53.368;14.658;2024-02-21T04:46:51;14.37;;;8.93;;
22571;SDS011;11452;53.368;14.658;2024-02-21T04:51:57;16.80;;;8.60;;
22571;SDS011;11452;53.368;14.658;2024-02-21T04:57:03;17.47;;;9.50;;
22571;SDS011;11452;53.368;14.658;2024-02-21T05:02:09;12.17;;;8.27;;
22571;SDS011;11452;53.368;14.658;2024-02-21T05:07:16;17.83;;;9.03;;
22571;SDS011;11452;53.368;14.658;2024-02-21T05:12:23;16.13;;;8.87;;
22571;SDS011;11452;53.368;14.658;2024-02-21T05:17:28;17.50;;;8.97;;
22571;SDS011;11452;53.368;14.658;2024-02-21T05:22:34;11.83;;;7.60;;
22571;SDS011;11452;53.368;14.658;2024-02-21T05:27:40;20.17;;;9.23;;
22571;SDS011;11452;53.368;14.658;2024-02-21T05:32:46;14.20;;;7.63;;
22571;SDS011;11452;53.368;14.658;2024-02-21T05:37:52;14.73;;;8.47;;
22571;SDS011;11452;53.368;14.658;2024-02-21T05:42:58;15.37;;;8.77;;
22571;SDS011;11452;53.368;14.658;2024-02-21T05:48:04;18.60;;;9.43;;
22571;SDS011;11452;53.368;14.658;2024-02-21T05:53:10;12.80;;;8.10;;
22571;SDS011;11452;53.368;14.658;2024-02-21T05:58:16;13.70;;;9.20;;
22571;SDS011;11452;53.368;14.658;2024-02-21T06:03:21;16.07;;;9.83;;
22571;SDS011;11452;53.368;14.658;2024-02-21T06:08:27;15.23;;;9.67;;
22571;SDS011;11452;53.368;14.658;2024-02-21T06:13:33;17.80;;;9.90;;
22571;SDS011;11452;53.368;14.658;2024-02-21T06:18:40;13.97;;;9.43;;
22571;SDS011;11452;53.368;14.658;2024-02-21T06:23:47;13.20;;;10.63;;
22571;SDS011;11452;53.368;14.658;2024-02-21T06:28:52;14.13;;;10.47;;
22571;SDS011;11452;53.368;14.658;2024-02-21T06:33:58;19.00;;;10.90;;
22571;SDS011;11452;53.368;14.658;2024-02-21T06:39:05;17.47;;;10.53;;
22571;SDS011;11452;53.368;14.658;2024-02-21T06:44:11;15.10;;;10.23;;
22571;SDS011;11452;53.368;14.658;2024-02-21T06:49:17;16.27;;;10.43;;
22571;SDS011;11452;53.368;14.658;2024-02-21T06:54:23;17.73;;;11.43;;
22571;SDS011;11452;53.368;14.658;2024-02-21T06:59:29;20.63;;;12.20;;
22571;SDS011;11452;53.368;14.658;2024-02-21T07:04:35;19.97;;;11.23;;
22571;SDS011;11452;53.368;14.658;2024-02-21T07:09:41;19.57;;;12.33;;
22571;SDS011;11452;53.368;14.658;2024-02-21T07:14:47;18.03;;;11.60;;
22571;SDS011;11452;53.368;14.658;2024-02-21T07:19:53;17.53;;;12.37;;
22571;SDS011;11452;53.368;14.658;2024-02-21T07:25:00;22.43;;;12.20;;
22571;SDS011;11452;53.368;14.658;2024-02-21T07:30:08;20.07;;;11.60;;
22571;SDS011;11452;53.368;14.658;2024-02-21T07:35:17;17.27;;;11.30;;
22571;SDS011;11452;53.368;14.658;2024-02-21T07:40:23;16.93;;;10.97;;
22571;SDS011;11452;53.368;14.658;2024-02-21T07:45:29;21.37;;;13.27;;
22571;SDS011;11452;53.368;14.658;2024-02-21T07:50:35;20.27;;;11.93;;
22571;SDS011;11452;53.368;14.658;2024-02-21T07:55:41;22.20;;;12.07;;
22571;SDS011;11452;53.368;14.658;2024-02-21T08:00:47;23.77;;;13.53;;
22571;SDS011;11452;53.368;14.658;2024-02-21T08:05:53;18.47;;;12.27;;
22571;SDS011;11452;53.368;14.658;2024-02-21T08:10:59;22.37;;;13.40;;
22571;SDS011;11452;53.368;14.658;2024-02-21T08:16:05;22.80;;;13.63;;
22571;SDS011;11452;53.368;14.658;2024-02-21T08:21:11;24.20;;;12.73;;
22571;SDS011;11452;53.368;14.658;2024-02-21T08:26:19;19.13;;;13.47;;
22571;SDS011;11452;53.368;14.658;2024-02-21T08:31:24;18.20;;;13.20;;
22571;SDS011;11452;53.368;14.658;2024-02-21T08:36:39;22.57;;;13.10;;
22571;SDS011;11452;53.368;14.658;2024-02-21T08:41:39;22.67;;;13.17;;
22571;SDS011;11452;53.368;14.658;2024-02-21T08:46:47;21.03;;;11.80;;
22571;SDS011;11452;53.368;14.658;2024-02-21T08:51:52;16.03;;;10.80;;
22571;SDS011;11452;53.368;14.658;2024-02-21T08:56:58;20.00;;;10.93;;
22571;SDS011;11452;53.368;14.658;2024-02-21T09:02:04;16.40;;;9.77;;
22571;SDS011;11452;53.368;14.658;2024-02-21T09:07:11;17.03;;;11.87;;
22571;SDS011;11452;53.368;14.658;2024-02-21T09:12:17;17.10;;;11.23;;
22571;SDS011;11452;53.368;14.658;2024-02-21T09:17:23;15.07;;;9.57;;
22571;SDS011;11452;53.368;14.658;2024-02-21T09:22:29;13.13;;;10.27;;
22571;SDS011;11452;53.368;14.658;2024-02-21T09:27:37;16.27;;;10.93;;
22571;SDS011;11452;53.368;14.658;2024-02-21T09:32:43;13.37;;;10.40;;
22571;SDS011;11452;53.368;14.658;2024-02-21T09:37:49;16.23;;;11.33;;
22571;SDS011;11452;53.368;14.658;2024-02-21T09:42:59;15.53;;;12.00;;
22571;SDS011;11452;53.368;14.658;2024-02-21T09:53:28;14.83;;;10.80;;
22571;SDS011;11452;53.368;14.658;2024-02-21T09:58:35;13.43;;;9.30;;
22571;SDS011;11452;53.368;14.658;2024-02-21T10:03:41;13.47;;;10.10;;
22571;SDS011;11452;53.368;14.658;2024-02-21T10:08:52;13.73;;;10.00;;
22571;SDS011;11452;53.368;14.658;2024-02-21T10:14:05;11.43;;;9.37;;
22571;SDS011;11452;53.368;14.658;2024-02-21T10:19:17;11.40;;;9.80;;
22571;SDS011;11452;53.368;14.658;2024-02-21T10:24:26;10.73;;;8.27;;
22571;SDS011;11452;53.368;14.658;2024-02-21T10:29:33;8.97;;;8.10;;
22571;SDS011;11452;53.368;14.658;2024-02-21T10:34:40;11.63;;;9.43;;
22571;SDS011;11452;53.368;14.658;2024-02-21T10:39:48;9.57;;;8.67;;
22571;SDS011;11452;53.368;14.658;2024-02-21T10:44:55;9.07;;;8.00;;
22571;SDS011;11452;53.368;14.658;2024-02-21T10:50:04;10.73;;;7.90;;
22571;SDS011;11452;53.368;14.658;2024-02-21T10:55:24;9.77;;;7.93;;
22571;SDS011;11452;53.368;14.658;2024-02-21T11:00:33;9.87;;;7.70;;
22571;SDS011;11452;53.368;14.658;2024-02-21T11:05:39;9.50;;;7.13;;
22571;SDS011;11452;53.368;14.658;2024-02-21T11:10:46;8.33;;;7.23;;
22571;SDS011;11452;53.368;14.658;2024-02-21T11:15:52;8.33;;;7.53;;
22571;SDS011;11452;53.368;14.658;2024-02-21T11:20:59;9.03;;;6.77;;
22571;SDS011;11452;53.368;14.658;2024-02-21T11:26:09;8.07;;;7.27;;
22571;SDS011;11452;53.368;14.658;2024-02-21T11:31:17;8.57;;;6.70;;
22571;SDS011;11452;53.368;14.658;2024-02-21T11:36:26;7.70;;;6.90;;
22571;SDS011;11452;53.368;14.658;2024-02-21T11:41:32;7.70;;;6.40;;
22571;SDS011;11452;53.368;14.658;2024-02-21T11:46:38;6.87;;;6.07;;
22571;SDS011;11452;53.368;14.658;2024-02-21T11:51:44;7.00;;;6.40;;
22571;SDS011;11452;53.368;14.658;2024-02-21T11:56:49;7.20;;;6.50;;
22571;SDS011;11452;53.368;14.658;2024-02-21T12:01:55;6.43;;;5.80;;
22571;SDS011;11452;53.368;14.658;2024-02-21T12:07:03;7.03;;;6.30;;
22571;SDS011;11452;53.368;14.658;2024-02-21T12:12:09;6.13;;;5.53;;
22571;SDS011;11452;53.368;14.658;2024-02-21T12:17:15;5.90;;;5.40;;
22571;SDS011;11452;53.368;14.658;2024-02-21T12:22:20;5.60;;;4.83;;
22571;SDS011;11452;53.368;14.658;2024-02-21T12:27:26;5.00;;;4.50;;
22571;SDS011;11452;53.368;14.658;2024-02-21T12:32:33;5.77;;;5.27;;
22571;SDS011;11452;53.368;14.658;2024-02-21T12:37:38;6.23;;;4.67;;
22571;SDS011;11452;53.368;14.658;2024-02-21T12:42:45;4.87;;;4.47;;
22571;SDS011;11452;53.368;14.658;2024-02-21T12:47:52;6.20;;;4.23;;
22571;SDS011;11452;53.368;14.658;2024-02-21T12:52:58;4.70;;;3.77;;
22571;SDS011;11452;53.368;14.658;2024-02-21T12:58:04;5.57;;;4.30;;
22571;SDS011;11452;53.368;14.658;2024-02-21T13:03:11;3.97;;;3.67;;
22571;SDS011;11452;53.368;14.658;2024-02-21T13:08:17;3.70;;;3.40;;
22571;SDS011;11452;53.368;14.658;2024-02-21T13:13:25;3.70;;;3.40;;
22571;SDS011;11452;53.368;14.658;2024-02-21T13:18:31;4.17;;;3.70;;
22571;SDS011;11452;53.368;14.658;2024-02-21T13:23:37;3.47;;;3.17;;
22571;SDS011;11452;53.368;14.658;2024-02-21T13:28:44;3.50;;;3.10;;
22571;SDS011;11452;53.368;14.658;2024-02-21T13:33:51;4.20;;;3.90;;
22571;SDS011;11452;53.368;14.658;2024-02-21T13:38:58;3.90;;;3.50;;
22571;SDS011;11452;53.368;14.658;2024-02-21T13:44:03;3.87;;;3.27;;
22571;SDS011;11452;53.368;14.658;2024-02-21T13:49:09;4.50;;;3.20;;
22571;SDS011;11452;53.368;14.658;2024-02-21T13:54:15;4.30;;;3.93;;
22571;SDS011;11452;53.368;14.658;2024-02-21T13:59:23;3.80;;;3.50;;
22571;SDS011;11452;53.368;14.658;2024-02-21T14:04:30;4.13;;;3.50;;
22571;SDS011;11452;53.368;14.658;2024-02-21T14:09:36;4.30;;;3.13;;
22571;SDS011;11452;53.368;14.658;2024-02-21T14:14:43;4.03;;;3.40;;
22571;SDS011;11452;53.368;14.658;2024-02-21T14:19:49;4.10;;;3.70;;
22571;SDS011;11452;53.368;14.658;2024-02-21T14:24:55;4.10;;;3.80;;
22571;SDS011;11452;53.368;14.658;2024-02-21T14:30:01;4.53;;;4.17;;
22571;SDS011;11452;53.368;14.658;2024-02-21T14:35:08;3.33;;;3.03;;
22571;SDS011;11452;53.368;14.658;2024-02-21T14:40:14;4.97;;;3.87;;
22571;SDS011;11452;53.368;14.658;2024-02-21T14:45:19;4.10;;;3.67;;
22571;SDS011;11452;53.368;14.658;2024-02-21T14:50:26;4.27;;;3.97;;
22571;SDS011;11452;53.368;14.658;2024-02-21T14:55:32;4.77;;;4.37;;
22571;SDS011;11452;53.368;14.658;2024-02-21T15:00:38;4.13;;;3.73;;
22571;SDS011;11452;53.368;14.658;2024-02-21T15:05:44;5.10;;;4.13;;
22571;SDS011;11452;53.368;14.658;2024-02-21T15:10:50;4.00;;;3.60;;
22571;SDS011;11452;53.368;14.658;2024-02-21T15:15:56;5.03;;;4.53;;
22571;SDS011;11452;53.368;14.658;2024-02-21T15:21:02;5.03;;;4.53;;
22571;SDS011;11452;53.368;14.658;2024-02-21T15:26:08;4.50;;;4.10;;
22571;SDS011;11452;53.368;14.658;2024-02-21T15:31:21;4.70;;;4.20;;
22571;SDS011;11452;53.368;14.658;2024-02-21T15:36:31;5.30;;;4.80;;
22571;SDS011;11452;53.368;14.658;2024-02-21T15:41:37;5.30;;;4.77;;
22571;SDS011;11452;53.368;14.658;2024-02-21T15:46:43;5.30;;;4.80;;
22571;SDS011;11452;53.368;14.658;2024-02-21T15:51:49;4.87;;;4.47;;
22571;SDS011;11452;53.368;14.658;2024-02-21T15:56:55;4.67;;;4.27;;
22571;SDS011;11452;53.368;14.658;2024-02-21T16:02:01;4.67;;;4.27;;
22571;SDS011;11452;53.368;14.658;2024-02-21T16:07:07;5.57;;;4.97;;
22571;SDS011;11452;53.368;14.658;2024-02-21T16:12:13;8.97;;;5.53;;
22571;SDS011;11452;53.368;14.658;2024-02-21T16:17:20;4.93;;;4.23;;
22571;SDS011;11452;53.368;14.658;2024-02-21T16:22:26;5.67;;;4.87;;
22571;SDS011;11452;53.368;14.658;2024-02-21T16:27:33;4.93;;;4.47;;
22571;SDS011;11452;53.368;14.658;2024-02-21T16:32:39;6.13;;;5.53;;
22571;SDS011;11452;53.368;14.658;2024-02-21T16:37:46;4.60;;;4.10;;
22571;SDS011;11452;53.368;14.658;2024-02-21T16:42:52;6.27;;;4.93;;
22571;SDS011;11452;53.368;14.658;2024-02-21T16:47:59;5.80;;;4.50;;
22571;SDS011;11452;53.368;14.658;2024-02-21T16:53:07;4.80;;;4.30;;
22571;SDS011;11452;53.368;14.658;2024-02-21T16:58:13;5.60;;;5.00;;
22571;SDS011;11452;53.368;14.658;2024-02-21T17:03:19;5.60;;;4.63;;
22571;SDS011;11452;53.368;14.658;2024-02-21T17:08:26;5.93;;;4.83;;
22571;SDS011;11452;53.368;14.658;2024-02-21T17:13:33;5.57;;;4.83;;
22571;SDS011;11452;53.368;14.658;2024-02-21T17:18:39;5.57;;;4.17;;
22571;SDS011;11452;53.368;14.658;2024-02-21T17:23:45;6.77;;;5.27;;
22571;SDS011;11452;53.368;14.658;2024-02-21T17:28:52;8.07;;;4.60;;
22571;SDS011;11452;53.368;14.658;2024-02-21T17:33:58;6.97;;;4.17;;
22571;SDS011;11452;53.368;14.658;2024-02-21T17:39:04;5.97;;;4.47;;
22571;SDS011;11452;53.368;14.658;2024-02-21T17:44:12;7.27;;;4.20;;
22571;SDS011;11452;53.368;14.658;2024-02-21T17:49:18;7.13;;;3.77;;
22571;SDS011;11452;53.368;14.658;2024-02-21T17:54:24;5.20;;;4.70;;
22571;SDS011;11452;53.368;14.658;2024-02-21T17:59:30;5.60;;;4.40;;
22571;SDS011;11452;53.368;14.658;2024-02-21T18:04:35;5.00;;;4.57;;
22571;SDS011;11452;53.368;14.658;2024-02-21T18:09:43;5.27;;;4.77;;
22571;SDS011;11452;53.368;14.658;2024-02-21T18:14:48;7.13;;;5.70;;
22571;SDS011;11452;53.368;14.658;2024-02-21T18:19:54;7.23;;;4.70;;
22571;SDS011;11452;53.368;14.658;2024-02-21T18:25:02;5.40;;;4.23;;
22571;SDS011;11452;53.368;14.658;2024-02-21T18:30:10;5.33;;;4.63;;
22571;SDS011;11452;53.368;14.658;2024-02-21T18:35:16;5.33;;;4.23;;
22571;SDS011;11452;53.368;14.658;2024-02-21T18:40:23;5.90;;;4.50;;
22571;SDS011;11452;53.368;14.658;2024-02-21T18:45:30;6.07;;;5.17;;
22571;SDS011;11452;53.368;14.658;2024-02-21T18:50:35;6.17;;;5.20;;
22571;SDS011;11452;53.368;14.658;2024-02-21T18:55:43;9.00;;;6.83;;
22571;SDS011;11452;53.368;14.658;2024-02-21T19:00:49;8.23;;;5.43;;
22571;SDS011;11452;53.368;14.658;2024-02-21T19:05:55;7.27;;;5.83;;
22571;SDS011;11452;53.368;14.658;2024-02-21T19:11:01;8.03;;;5.47;;
22571;SDS011;11452;53.368;14.658;2024-02-21T19:16:07;10.90;;;6.40;;
22571;SDS011;11452;53.368;14.658;2024-02-21T19:21:14;5.47;;;4.83;;
22571;SDS011;11452;53.368;14.658;2024-02-21T19:26:20;6.30;;;5.47;;
22571;SDS011;11452;53.368;14.658;2024-02-21T19:31:26;8.33;;;5.13;;
22571;SDS011;11452;53.368;14.658;2024-02-21T19:36:32;8.47;;;5.73;;
22571;SDS011;11452;53.368;14.658;2024-02-21T19:41:40;6.03;;;5.37;;
22571;SDS011;11452;53.368;14.658;2024-02-21T19:46:45;6.07;;;4.83;;
22571;SDS011;11452;53.368;14.658;2024-02-21T19:51:51;6.43;;;5.03;;
22571;SDS011;11452;53.368;14.658;2024-02-21T19:56:57;7.30;;;5.20;;
22571;SDS011;11452;53.368;14.658;2024-02-21T20:02:04;6.97;;;5.07;;
22571;SDS011;11452;53.368;14.658;2024-02-21T20:07:10;5.23;;;4.00;;
22571;SDS011;11452;53.368;14.658;2024-02-21T20:12:16;4.33;;;3.90;;
22571;SDS011;11452;53.368;14.658;2024-02-21T20:17:24;9.67;;;4.40;;
22571;SDS011;11452;53.368;14.658;2024-02-21T20:22:30;8.03;;;4.40;;
22571;SDS011;11452;53.368;14.658;2024-02-21T20:27:37;4.57;;;3.57;;
22571;SDS011;11452;53.368;14.658;2024-02-21T20:32:43;6.20;;;3.87;;
22571;SDS011;11452;53.368;14.658;2024-02-21T20:37:49;4.97;;;3.23;;
22571;SDS011;11452;53.368;14.658;2024-02-21T20:42:55;9.13;;;3.50;;
22571;SDS011;11452;53.368;14.658;2024-02-21T20:48:00;5.67;;;3.53;;
22571;SDS011;11452;53.368;14.658;2024-02-21T20:53:06;5.63;;;4.10;;
22571;SDS011;11452;53.368;14.658;2024-02-21T20:58:12;4.50;;;3.10;;
22571;SDS011;11452;53.368;14.658;2024-02-21T21:03:18;4.20;;;3.27;;
22571;SDS011;11452;53.368;14.658;2024-02-21T21:08:24;5.90;;;4.17;;
22571;SDS011;11452;53.368;14.658;2024-02-21T21:13:29;4.73;;;3.70;;
22571;SDS011;11452;53.368;14.658;2024-02-21T21:18:38;6.73;;;3.60;;
22571;SDS011;11452;53.368;14.658;2024-02-21T21:23:44;5.77;;;3.77;;
22571;SDS011;11452;53.368;14.658;2024-02-21T21:28:51;6.73;;;5.30;;
22571;SDS011;11452;53.368;14.658;2024-02-21T21:33:58;5.67;;;4.17;;
22571;SDS011;11452;53.368;14.658;2024-02-21T21:39:04;5.40;;;3.60;;
22571;SDS011;11452;53.368;14.658;2024-02-21T21:44:10;5.27;;;4.00;;
22571;SDS011;11452;53.368;14.658;2024-02-21T21:49:17;7.80;;;4.13;;
22571;SDS011;11452;53.368;14.658;2024-02-21T21:54:23;6.03;;;4.00;;
22571;SDS011;11452;53.368;14.658;2024-02-21T21:59:29;5.80;;;3.47;;
22571;SDS011;11452;53.368;14.658;2024-02-21T22:04:34;5.87;;;3.83;;
22571;SDS011;11452;53.368;14.658;2024-02-21T22:09:40;7.83;;;3.70;;
22571;SDS011;11452;53.368;14.658;2024-02-21T22:14:46;6.07;;;4.27;;
22571;SDS011;11452;53.368;14.658;2024-02-21T22:19:52;5.77;;;4.50;;
22571;SDS011;11452;53.368;14.658;2024-02-21T22:24:57;6.33;;;4.23;;
22571;SDS011;11452;53.368;14.658;2024-02-21T22:30:03;8.20;;;5.57;;
22571;SDS011;11452;53.368;14.658;2024-02-21T22:35:11;5.97;;;4.53;;
22571;SDS011;11452;53.368;14.658;2024-02-21T22:40:18;5.00;;;3.80;;
22571;SDS011;11452;53.368;14.658;2024-02-21T22:45:24;9.70;;;5.40;;
22571;SDS011;11452;53.368;14.658;2024-02-21T22:50:29;7.07;;;4.83;;
22571;SDS011;11452;53.368;14.658;2024-02-21T22:55:35;4.57;;;4.00;;
22571;SDS011;11452;53.368;14.658;2024-02-21T23:00:41;6.27;;;4.83;;
22571;SDS011;11452;53.368;14.658;2024-02-21T23:05:48;4.83;;;3.83;;
22571;SDS011;11452;53.368;14.658;2024-02-21T23:10:53;6.53;;;4.60;;
22571;SDS011;11452;53.368;14.658;2024-02-21T23:16:01;6.33;;;4.20;;
22571;SDS011;11452;53.368;14.658;2024-02-21T23:21:12;6.43;;;4.40;;
22571;SDS011;11452;53.368;14.658;2024-02-21T23:26:24;6.03;;;4.20;;
22571;SDS011;11452;53.368;14.658;2024-02-21T23:31:34;4.90;;;4.00;;
22571;SDS011;11452;53.368;14.658;2024-02-21T23:36:41;7.27;;;4.50;;
22571;SDS011;11452;53.368;14.658;2024-02-21T23:41:47;5.33;;;4.33;;
22571;SDS011;11452;53.368;14.658;2024-02-21T23:46:53;6.50;;;4.57;;
22571;SDS011;11452;53.368;14.658;2024-02-21T23:51:59;5.03;;;3.97;;
22571;SDS011;11452;53.368;14.658;2024-02-21T23:57:04;6.77;;;4.13;;
